sensor_id;sensor_type;location;lat;lon;timestamp;P1;durP1;ratioP1;P2;durP2;ratioP2
31348;SDS011;17976;48.480;11.946;2022-12-13T14:46:59;16.80;;;7.47;;
31348;SDS011;17976;48.480;11.946;2022-12-13T14:49:25;19.08;;;7.43;;
31348;SDS011;17976;48.480;11.946;2022-12-13T14:51:56;13.93;;;7.10;;
31348;SDS011;17976;48.480;11.946;2022-12-13T14:54:28;17.08;;;7.35;;
31348;SDS011;17976;48.480;11.946;2022-12-13T14:56:59;16.08;;;7.18;;
31348;SDS011;17976;48.480;11.946;2022-12-13T14:59:26;15.93;;;6.78;;
31348;SDS011;17976;48.480;11.946;2022-12-13T15:02:00;14.02;;;6.28;;
31348;SDS011;17976;48.480;11.946;2022-12-13T15:04:30;11.73;;;5.57;;
31348;SDS011;17976;48.480;11.946;2022-12-13T15:09:42;12.27;;;6.30;;
31348;SDS011;17976;48.480;11.946;2022-12-13T15:12:10;14.35;;;6.18;;
31348;SDS011;17976;48.480;11.946;2022-12-13T15:14:36;13.35;;;6.90;;
31348;SDS011;17976;48.480;11.946;2022-12-13T15:17:03;15.73;;;6.15;;
31348;SDS011;17976;48.480;11.946;2022-12-13T15:19:29;12.15;;;6.32;;
31348;SDS011;17976;48.480;11.946;2022-12-13T15:22:05;15.40;;;6.47;;
31348;SDS011;17976;48.480;11.946;2022-12-13T15:24:39;10.98;;;6.80;;
31348;SDS011;17976;48.480;11.946;2022-12-13T15:27:05;10.23;;;5.75;;
31348;SDS011;17976;48.480;11.946;2022-12-13T15:29:33;11.45;;;6.20;;
31348;SDS011;17976;48.480;11.946;2022-12-13T15:32:02;11.52;;;6.35;;
31348;SDS011;17976;48.480;11.946;2022-12-13T15:34:33;13.85;;;6.65;;
31348;SDS011;17976;48.480;11.946;2022-12-13T15:37:32;13.93;;;6.85;;
31348;SDS011;17976;48.480;11.946;2022-12-13T15:39:53;16.02;;;6.95;;
31348;SDS011;17976;48.480;11.946;2022-12-13T15:42:22;13.50;;;6.50;;
31348;SDS011;17976;48.480;11.946;2022-12-13T15:44:52;13.38;;;6.18;;
31348;SDS011;17976;48.480;11.946;2022-12-13T15:47:20;14.43;;;6.75;;
31348;SDS011;17976;48.480;11.946;2022-12-13T15:54:58;12.07;;;6.22;;
31348;SDS011;17976;48.480;11.946;2022-12-13T15:57:27;12.73;;;6.03;;
31348;SDS011;17976;48.480;11.946;2022-12-13T16:00:07;12.60;;;5.97;;
31348;SDS011;17976;48.480;11.946;2022-12-13T16:02:34;13.63;;;6.38;;
31348;SDS011;17976;48.480;11.946;2022-12-13T16:05:06;14.73;;;6.55;;
31348;SDS011;17976;48.480;11.946;2022-12-13T16:07:33;14.18;;;6.57;;
31348;SDS011;17976;48.480;11.946;2022-12-13T16:10:02;13.32;;;6.75;;
31348;SDS011;17976;48.480;11.946;2022-12-13T16:12:33;14.25;;;6.65;;
31348;SDS011;17976;48.480;11.946;2022-12-13T16:15:18;11.55;;;6.82;;
31348;SDS011;17976;48.480;11.946;2022-12-13T16:17:44;14.80;;;6.88;;
31348;SDS011;17976;48.480;11.946;2022-12-13T16:20:14;13.82;;;7.30;;
31348;SDS011;17976;48.480;11.946;2022-12-13T16:22:40;12.95;;;6.72;;
31348;SDS011;17976;48.480;11.946;2022-12-13T16:25:08;15.57;;;7.22;;
31348;SDS011;17976;48.480;11.946;2022-12-13T16:27:36;12.77;;;6.93;;
31348;SDS011;17976;48.480;11.946;2022-12-13T16:30:20;13.10;;;6.72;;
31348;SDS011;17976;48.480;11.946;2022-12-13T16:32:46;16.55;;;6.20;;
31348;SDS011;17976;48.480;11.946;2022-12-13T16:35:13;15.18;;;7.55;;
31348;SDS011;17976;48.480;11.946;2022-12-13T16:37:39;14.27;;;6.85;;
31348;SDS011;17976;48.480;11.946;2022-12-13T16:42:40;13.23;;;6.78;;
31348;SDS011;17976;48.480;11.946;2022-12-13T16:45:10;14.63;;;6.50;;
31348;SDS011;17976;48.480;11.946;2022-12-13T16:47:36;13.30;;;6.95;;
31348;SDS011;17976;48.480;11.946;2022-12-13T16:50:05;11.70;;;6.97;;
31348;SDS011;17976;48.480;11.946;2022-12-13T16:52:34;16.05;;;7.88;;
31348;SDS011;17976;48.480;11.946;2022-12-13T16:55:03;12.48;;;6.80;;
31348;SDS011;17976;48.480;11.946;2022-12-13T16:57:29;13.30;;;7.10;;
31348;SDS011;17976;48.480;11.946;2022-12-13T16:59:55;18.30;;;7.40;;
31348;SDS011;17976;48.480;11.946;2022-12-13T17:02:22;14.85;;;6.93;;
31348;SDS011;17976;48.480;11.946;2022-12-13T17:04:48;17.52;;;6.90;;
31348;SDS011;17976;48.480;11.946;2022-12-13T17:07:14;12.10;;;6.90;;
31348;SDS011;17976;48.480;11.946;2022-12-13T17:09:40;14.98;;;7.68;;
31348;SDS011;17976;48.480;11.946;2022-12-13T17:12:07;13.02;;;7.13;;
31348;SDS011;17976;48.480;11.946;2022-12-13T17:14:33;13.93;;;7.32;;
31348;SDS011;17976;48.480;11.946;2022-12-13T17:16:59;16.58;;;7.15;;
31348;SDS011;17976;48.480;11.946;2022-12-13T17:19:25;14.60;;;7.75;;
31348;SDS011;17976;48.480;11.946;2022-12-13T17:21:51;14.05;;;7.53;;
31348;SDS011;17976;48.480;11.946;2022-12-13T17:24:17;15.05;;;6.97;;
31348;SDS011;17976;48.480;11.946;2022-12-13T17:26:43;16.35;;;6.88;;
31348;SDS011;17976;48.480;11.946;2022-12-13T17:29:09;13.80;;;7.50;;
31348;SDS011;17976;48.480;11.946;2022-12-13T17:31:35;15.15;;;7.35;;
31348;SDS011;17976;48.480;11.946;2022-12-13T17:34:01;15.52;;;7.45;;
31348;SDS011;17976;48.480;11.946;2022-12-13T17:36:27;17.92;;;8.00;;
31348;SDS011;17976;48.480;11.946;2022-12-13T17:38:55;16.77;;;7.40;;
31348;SDS011;17976;48.480;11.946;2022-12-13T17:41:21;16.60;;;7.97;;
31348;SDS011;17976;48.480;11.946;2022-12-13T17:43:48;20.27;;;7.63;;
31348;SDS011;17976;48.480;11.946;2022-12-13T17:46:15;11.60;;;6.80;;
31348;SDS011;17976;48.480;11.946;2022-12-13T17:48:41;16.25;;;7.72;;
31348;SDS011;17976;48.480;11.946;2022-12-13T17:51:09;16.17;;;7.38;;
31348;SDS011;17976;48.480;11.946;2022-12-13T17:53:37;15.45;;;7.47;;
31348;SDS011;17976;48.480;11.946;2022-12-13T17:56:04;15.63;;;7.00;;
31348;SDS011;17976;48.480;11.946;2022-12-13T17:58:30;17.45;;;8.55;;
31348;SDS011;17976;48.480;11.946;2022-12-13T18:00:56;17.48;;;7.90;;
31348;SDS011;17976;48.480;11.946;2022-12-13T18:03:23;16.20;;;7.90;;
31348;SDS011;17976;48.480;11.946;2022-12-13T18:05:56;15.57;;;7.93;;
31348;SDS011;17976;48.480;11.946;2022-12-13T18:08:22;16.42;;;7.80;;
31348;SDS011;17976;48.480;11.946;2022-12-13T18:10:54;17.65;;;7.40;;
31348;SDS011;17976;48.480;11.946;2022-12-13T18:13:24;20.08;;;7.93;;
31348;SDS011;17976;48.480;11.946;2022-12-13T18:15:51;17.42;;;7.82;;
31348;SDS011;17976;48.480;11.946;2022-12-13T18:18:17;15.65;;;7.50;;
31348;SDS011;17976;48.480;11.946;2022-12-13T18:20:44;15.38;;;7.68;;
31348;SDS011;17976;48.480;11.946;2022-12-13T18:23:10;15.70;;;8.38;;
31348;SDS011;17976;48.480;11.946;2022-12-13T18:25:37;18.80;;;8.80;;
31348;SDS011;17976;48.480;11.946;2022-12-13T18:28:03;14.48;;;7.57;;
31348;SDS011;17976;48.480;11.946;2022-12-13T18:30:30;19.58;;;8.48;;
31348;SDS011;17976;48.480;11.946;2022-12-13T18:32:56;17.23;;;8.00;;
31348;SDS011;17976;48.480;11.946;2022-12-13T18:35:22;19.10;;;8.57;;
31348;SDS011;17976;48.480;11.946;2022-12-13T18:37:48;17.42;;;8.65;;
31348;SDS011;17976;48.480;11.946;2022-12-13T18:40:15;18.00;;;9.70;;
31348;SDS011;17976;48.480;11.946;2022-12-13T18:42:41;18.50;;;9.10;;
31348;SDS011;17976;48.480;11.946;2022-12-13T18:45:08;21.05;;;9.52;;
31348;SDS011;17976;48.480;11.946;2022-12-13T18:47:34;17.00;;;9.05;;
31348;SDS011;17976;48.480;11.946;2022-12-13T18:50:00;16.20;;;8.40;;
31348;SDS011;17976;48.480;11.946;2022-12-13T18:52:26;18.50;;;8.65;;
31348;SDS011;17976;48.480;11.946;2022-12-13T18:54:52;16.50;;;8.68;;
31348;SDS011;17976;48.480;11.946;2022-12-13T18:57:18;20.25;;;9.68;;
31348;SDS011;17976;48.480;11.946;2022-12-13T18:59:44;20.13;;;9.18;;
31348;SDS011;17976;48.480;11.946;2022-12-13T19:02:10;19.67;;;9.40;;
31348;SDS011;17976;48.480;11.946;2022-12-13T19:04:37;14.95;;;8.45;;
31348;SDS011;17976;48.480;11.946;2022-12-13T19:07:03;18.30;;;9.07;;
31348;SDS011;17976;48.480;11.946;2022-12-13T19:09:29;17.48;;;8.93;;
31348;SDS011;17976;48.480;11.946;2022-12-13T19:11:56;22.08;;;9.13;;
31348;SDS011;17976;48.480;11.946;2022-12-13T19:14:22;17.02;;;9.23;;
31348;SDS011;17976;48.480;11.946;2022-12-13T19:16:47;19.75;;;9.05;;
31348;SDS011;17976;48.480;11.946;2022-12-13T19:19:14;19.10;;;9.35;;
31348;SDS011;17976;48.480;11.946;2022-12-13T19:21:40;18.45;;;9.02;;
31348;SDS011;17976;48.480;11.946;2022-12-13T19:24:06;20.40;;;9.43;;
31348;SDS011;17976;48.480;11.946;2022-12-13T19:26:34;17.95;;;8.77;;
31348;SDS011;17976;48.480;11.946;2022-12-13T19:29:00;16.38;;;9.07;;
31348;SDS011;17976;48.480;11.946;2022-12-13T19:31:27;21.75;;;8.88;;
31348;SDS011;17976;48.480;11.946;2022-12-13T19:33:54;26.52;;;10.48;;
31348;SDS011;17976;48.480;11.946;2022-12-13T19:36:20;20.88;;;9.90;;
31348;SDS011;17976;48.480;11.946;2022-12-13T19:38:46;21.63;;;10.20;;
31348;SDS011;17976;48.480;11.946;2022-12-13T19:41:13;25.80;;;10.20;;
31348;SDS011;17976;48.480;11.946;2022-12-13T19:43:39;23.05;;;9.77;;
31348;SDS011;17976;48.480;11.946;2022-12-13T19:46:05;21.40;;;9.98;;
31348;SDS011;17976;48.480;11.946;2022-12-13T19:48:32;22.90;;;9.90;;
31348;SDS011;17976;48.480;11.946;2022-12-13T19:50:58;19.27;;;9.55;;
31348;SDS011;17976;48.480;11.946;2022-12-13T19:53:25;21.05;;;9.80;;
31348;SDS011;17976;48.480;11.946;2022-12-13T19:55:51;23.75;;;11.55;;
31348;SDS011;17976;48.480;11.946;2022-12-13T19:58:18;19.88;;;10.35;;
31348;SDS011;17976;48.480;11.946;2022-12-13T20:00:44;20.05;;;10.65;;
31348;SDS011;17976;48.480;11.946;2022-12-13T20:03:10;28.40;;;10.65;;
31348;SDS011;17976;48.480;11.946;2022-12-13T20:05:36;23.05;;;10.80;;
31348;SDS011;17976;48.480;11.946;2022-12-13T20:08:02;21.70;;;10.07;;
31348;SDS011;17976;48.480;11.946;2022-12-13T20:10:28;24.42;;;11.30;;
31348;SDS011;17976;48.480;11.946;2022-12-13T20:12:54;23.02;;;11.15;;
31348;SDS011;17976;48.480;11.946;2022-12-13T20:15:20;25.55;;;11.75;;
31348;SDS011;17976;48.480;11.946;2022-12-13T20:17:46;24.85;;;12.38;;
31348;SDS011;17976;48.480;11.946;2022-12-13T20:20:12;25.08;;;11.93;;
31348;SDS011;17976;48.480;11.946;2022-12-13T20:22:38;24.58;;;11.50;;
31348;SDS011;17976;48.480;11.946;2022-12-13T20:25:04;30.42;;;12.57;;
31348;SDS011;17976;48.480;11.946;2022-12-13T20:27:31;28.35;;;11.38;;
31348;SDS011;17976;48.480;11.946;2022-12-13T20:29:57;22.35;;;11.45;;
31348;SDS011;17976;48.480;11.946;2022-12-13T20:32:22;24.17;;;11.13;;
31348;SDS011;17976;48.480;11.946;2022-12-13T20:34:48;26.23;;;11.48;;
31348;SDS011;17976;48.480;11.946;2022-12-13T20:37:14;25.10;;;10.80;;
31348;SDS011;17976;48.480;11.946;2022-12-13T20:39:40;25.88;;;11.57;;
31348;SDS011;17976;48.480;11.946;2022-12-13T20:42:06;26.05;;;11.10;;
31348;SDS011;17976;48.480;11.946;2022-12-13T20:44:32;21.85;;;11.02;;
31348;SDS011;17976;48.480;11.946;2022-12-13T20:46:58;23.13;;;11.70;;
31348;SDS011;17976;48.480;11.946;2022-12-13T20:49:24;25.73;;;13.25;;
31348;SDS011;17976;48.480;11.946;2022-12-13T20:51:50;26.98;;;12.32;;
31348;SDS011;17976;48.480;11.946;2022-12-13T20:54:16;28.42;;;13.63;;
31348;SDS011;17976;48.480;11.946;2022-12-13T20:56:42;28.42;;;12.25;;
31348;SDS011;17976;48.480;11.946;2022-12-13T20:59:09;28.08;;;11.88;;
